aviador You're here:

EHEH Decoded Metar

EINDHOVEN in NETHERLANDS
Report Time2018-05-25 20:25:00
UTC Time2018-05-25 20:50:33
Flight Rules vfr VFR
Wind080° at 04 kt
W.Decomp.*RWY 04: 3.1 kt HW 2.6 kt RCW
W.Rank080° ranks 33
Current wind is below 080° avg. (5.6)
Visibility9999 m
Phenomena:N/A
Clouds:Few CB 050 Hf
Overcast 270 Hf
Expected CloudBase > 2,800 ft AGL from Temp-Dew spread
Ceiling27,000 ft
Temp22°C (ISA +7)
Dew Point15°C (65% RH)
QNH1018 hPa
Density Alt965 ft
Elevation72 ft
Report Wrong Elevation
Raw Report
METAR EHEH 252025Z AUTO 08004KT 9999 OVC270 22/15 Q1018 BLU VRB03KT
9999 FEW050CB SCT250=

Extra information for EHEH:More info

Metar Taf Metar & Taf Last 4 Metars F.Rules Stats Wind Profile Meteogram Temp Stats Airport Information Weather charts Add Link Nearby VenuesMetar ALERT Operation Metar Decoded Social comments